Time;durP1;ratioP1;P1;durP2;ratioP2;P2;SDS_P1;SDS_P2;PMS_P1;PMS_P2;Temp;Humidity;BMP_temperature;BMP_pressure;BME280_temperature;BME280_humidity;BME280_pressure;Samples;Min_cycle;Max_cycle;Signal;HPM_P1;HPM_P2
2023/04/17 00:01:02;;;;;;;2.30;2.03;;;17.40;73.80;;;;;;5074714;28;20636;-65
2023/04/17 00:03:51;;;;;;;2.70;2.47;;;17.30;73.70;;;;;;5073696;28;20672;-65
2023/04/17 00:06:42;;;;;;;3.13;2.33;;;17.30;73.20;;;;;;5073289;28;20258;-65
2023/04/17 00:09:30;;;;;;;2.60;2.10;;;17.30;73.70;;;;;;5075227;28;20471;-65
2023/04/17 00:12:20;;;;;;;2.15;2.05;;;17.30;73.70;;;;;;5073332;28;20274;-65
2023/04/17 00:15:08;;;;;;;2.80;2.60;;;17.30;73.80;;;;;;5074261;28;20200;-65
2023/04/17 00:17:56;;;;;;;2.50;2.30;;;17.30;73.20;;;;;;5072161;28;20534;-65
2023/04/17 00:20:44;;;;;;;2.60;2.40;;;17.30;73.70;;;;;;5073379;28;20201;-65
2023/04/17 00:23:32;;;;;;;2.78;2.58;;;17.30;73.70;;;;;;5072909;28;20630;-65
2023/04/17 00:26:20;;;;;;;2.83;2.63;;;17.30;73.00;;;;;;5074360;28;20221;-65
2023/04/17 00:29:10;;;;;;;3.58;2.85;;;17.40;73.70;;;;;;5074486;28;20318;-65
2023/04/17 00:31:58;;;;;;;2.85;2.65;;;17.30;73.50;;;;;;5072571;28;20201;-65
2023/04/17 00:34:46;;;;;;;2.65;2.55;;;17.30;73.50;;;;;;5073137;28;20201;-65
2023/04/17 00:37:35;;;;;;;2.80;2.60;;;17.20;72.90;;;;;;5073028;28;20706;-65
2023/04/17 00:40:23;;;;;;;2.50;2.30;;;17.20;73.50;;;;;;5072601;28;20294;-65
2023/04/17 00:43:11;;;;;;;2.83;2.63;;;17.20;73.50;;;;;;5072320;28;20244;-65
2023/04/17 00:46:01;;;;;;;2.30;2.03;;;17.50;75.20;;;;;;5065075;28;20777;-65
2023/04/17 00:48:49;;;;;;;2.80;2.60;;;17.30;73.50;;;;;;5053688;28;20685;-65
2023/04/17 00:51:38;;;;;;;2.70;2.47;;;17.30;73.40;;;;;;5054020;28;20292;-65
2023/04/17 00:54:26;;;;;;;2.53;2.22;;;17.30;73.30;;;;;;5052195;28;20198;-65
2023/04/17 00:57:14;;;;;;;4.25;2.80;;;17.30;72.70;;;;;;5051968;28;20271;-65
2023/04/17 01:00:03;;;;;;;3.33;3.00;;;17.30;73.20;;;;;;5053417;28;20685;-65
2023/04/17 01:02:53;;;;;;;2.85;2.60;;;17.30;73.20;;;;;;5053106;28;20201;-65
2023/04/17 01:05:41;;;;;;;3.45;3.08;;;17.40;73.30;;;;;;5053377;28;20693;-65
2023/04/17 01:08:36;;;;;;;3.10;2.80;;;17.40;73.30;;;;;;5053174;28;20276;-65
2023/04/17 01:11:24;;;;;;;2.88;2.67;;;17.30;72.60;;;;;;5052496;28;20232;-65
2023/04/17 01:14:14;;;;;;;2.53;2.33;;;17.30;73.30;;;;;;5052194;28;20675;-66
2023/04/17 01:17:02;;;;;;;2.50;2.35;;;17.20;72.70;;;;;;5053947;28;20253;-65
2023/04/17 01:19:52;;;;;;;3.53;3.00;;;17.20;73.30;;;;;;5052173;28;20276;-65
2023/04/17 01:22:40;;;;;;;3.10;2.67;;;17.30;73.30;;;;;;5053795;28;20206;-65
2023/04/17 01:25:30;;;;;;;2.60;2.40;;;17.20;73.30;;;;;;5052459;28;20259;-65
2023/04/17 01:28:18;;;;;;;2.50;2.40;;;17.10;72.60;;;;;;5052505;28;20303;-65
2023/04/17 01:31:06;;;;;;;3.00;2.80;;;17.20;73.30;;;;;;5052948;28;20248;-65
2023/04/17 01:33:54;;;;;;;3.63;3.33;;;17.20;73.30;;;;;;5052740;28;20201;-65
2023/04/17 01:36:42;;;;;;;3.90;3.33;;;17.20;72.30;;;;;;5053029;28;20229;-65
2023/04/17 01:39:31;;;;;;;3.70;3.38;;;17.20;72.80;;;;;;5052653;28;20328;-65
2023/04/17 01:42:20;;;;;;;5.53;4.05;;;17.20;72.70;;;;;;5054026;28;20416;-65
2023/04/17 01:45:09;;;;;;;3.63;3.25;;;17.30;72.60;;;;;;5069076;28;20213;-65
2023/04/17 01:47:59;;;;;;;3.72;3.30;;;17.30;71.90;;;;;;5051943;28;20241;-65
2023/04/17 01:50:47;;;;;;;3.28;2.83;;;17.30;72.50;;;;;;5052666;28;20212;-65
2023/04/17 01:53:37;;;;;;;3.55;2.97;;;17.40;72.60;;;;;;5052524;28;20202;-65
2023/04/17 01:56:25;;;;;;;3.50;3.20;;;17.50;71.90;;;;;;5051866;28;20306;-65
2023/04/17 01:59:15;;;;;;;6.88;3.95;;;17.50;72.50;;;;;;5052027;28;20225;-65
2023/04/17 02:02:03;;;;;;;2.88;2.67;;;17.50;72.20;;;;;;5052044;28;20202;-65
2023/04/17 02:04:51;;;;;;;4.30;3.03;;;17.50;72.10;;;;;;5052060;28;20670;-65
2023/04/17 02:07:39;;;;;;;3.05;2.85;;;17.50;71.50;;;;;;5051908;28;20304;-65
2023/04/17 02:10:27;;;;;;;3.78;3.15;;;17.50;72.00;;;;;;5052613;28;20280;-65
2023/04/17 02:13:15;;;;;;;3.22;2.92;;;17.50;72.00;;;;;;5051014;28;20284;-65
2023/04/17 02:16:06;;;;;;;3.50;3.20;;;17.30;73.40;;;;;;5051684;28;20601;-65
2023/04/17 02:18:54;;;;;;;3.20;2.90;;;17.50;72.20;;;;;;5052516;28;20604;-65
2023/04/17 02:21:42;;;;;;;3.70;3.15;;;17.40;72.10;;;;;;5050896;28;20201;-65
2023/04/17 02:24:31;;;;;;;3.75;3.42;;;17.40;72.20;;;;;;5051737;28;20227;-65
2023/04/17 02:27:19;;;;;;;2.92;2.63;;;17.30;71.60;;;;;;5052172;28;20348;-65
2023/04/17 02:30:08;;;;;;;3.10;2.80;;;17.30;72.20;;;;;;5050941;28;20205;-65
2023/04/17 02:32:58;;;;;;;3.17;2.92;;;17.30;72.40;;;;;;5050809;28;20201;-65
2023/04/17 02:35:46;;;;;;;4.25;3.05;;;17.20;72.50;;;;;;5051807;28;20209;-65
2023/04/17 02:38:34;;;;;;;4.03;3.42;;;17.10;72.00;;;;;;5051909;28;20225;-66
2023/04/17 02:41:22;;;;;;;3.60;3.30;;;17.10;72.60;;;;;;5050788;28;20276;-66
2023/04/17 02:44:10;;;;;;;5.13;3.25;;;17.00;72.70;;;;;;5052449;28;20201;-66
2023/04/17 02:46:58;;;;;;;3.22;2.72;;;17.10;72.20;;;;;;5051370;28;20248;-66
2023/04/17 02:49:47;;;;;;;3.97;3.58;;;17.00;72.70;;;;;;5050903;28;20197;-66
2023/04/17 02:52:35;;;;;;;3.65;3.05;;;17.00;72.70;;;;;;5050707;28;20699;-66
2023/04/17 02:55:24;;;;;;;5.35;4.85;;;17.00;72.80;;;;;;5050965;28;20331;-66
2023/04/17 02:58:12;;;;;;;4.22;3.83;;;17.00;71.60;;;;;;5051250;28;20262;-66
2023/04/17 03:01:01;;;;;;;4.05;3.63;;;17.10;71.90;;;;;;5051206;28;20280;-66
2023/04/17 03:03:51;;;;;;;5.63;3.95;;;17.30;71.50;;;;;;5050577;28;20307;-65
2023/04/17 03:06:41;;;;;;;5.50;4.50;;;17.50;71.10;;;;;;5050675;28;20222;-66
2023/04/17 03:09:29;;;;;;;4.53;3.78;;;17.60;70.80;;;;;;5050790;28;20201;-66
2023/04/17 03:12:17;;;;;;;5.47;3.90;;;17.70;70.50;;;;;;5050468;28;20280;-66
2023/04/17 03:15:07;;;;;;;5.53;5.00;;;17.80;70.50;;;;;;5051082;28;20240;-66
2023/04/17 03:17:55;;;;;;;3.42;3.13;;;17.80;70.20;;;;;;5051048;28;20729;-66
2023/04/17 03:20:44;;;;;;;4.80;4.25;;;17.90;70.10;;;;;;5050850;28;20586;-66
2023/04/17 03:23:33;;;;;;;4.55;3.55;;;17.90;70.70;;;;;;5050481;28;20582;-66
2023/04/17 03:26:21;;;;;;;5.38;4.00;;;17.90;69.90;;;;;;5050278;28;20224;-67
2023/04/17 03:29:09;;;;;;;4.80;3.63;;;18.00;69.90;;;;;;5050382;28;20327;-67
2023/04/17 03:31:58;;;;;;;4.00;3.08;;;18.00;69.70;;;;;;5050674;28;20224;-66
2023/04/17 03:34:46;;;;;;;3.88;3.38;;;18.00;70.20;;;;;;5050389;28;20201;-66
2023/04/17 03:37:34;;;;;;;4.10;3.70;;;18.00;70.20;;;;;;5050350;28;20647;-66
2023/04/17 03:40:23;;;;;;;4.78;3.63;;;17.90;70.20;;;;;;5050445;28;20217;-66
2023/04/17 03:43:11;;;;;;;3.20;3.00;;;17.80;70.50;;;;;;5059595;28;20204;-67
2023/04/17 03:46:00;;;;;;;5.60;3.83;;;17.80;74.10;;;;;;5060790;28;20197;-69
2023/04/17 03:48:48;;;;;;;5.95;3.10;;;17.60;70.70;;;;;;5050925;28;20197;-66
2023/04/17 03:51:36;;;;;;;3.42;3.13;;;17.60;70.90;;;;;;5058964;28;20658;-66
2023/04/17 03:54:24;;;;;;;3.67;3.38;;;17.50;70.80;;;;;;5073193;28;20197;-65
2023/04/17 03:57:13;;;;;;;5.30;3.55;;;17.50;70.40;;;;;;5073767;28;20696;-66
2023/04/17 04:00:02;;;;;;;5.90;3.70;;;17.40;71.00;;;;;;5073270;28;20227;-67
2023/04/17 04:02:50;;;;;;;4.13;3.70;;;17.40;71.20;;;;;;5074133;28;20201;-66
2023/04/17 04:05:38;;;;;;;3.53;3.33;;;17.40;71.20;;;;;;5073766;28;20201;-66
2023/04/17 04:08:26;;;;;;;3.45;3.15;;;17.30;70.60;;;;;;5074502;28;20231;-66
2023/04/17 04:11:15;;;;;;;3.35;2.97;;;17.40;71.40;;;;;;5074366;28;20616;-66
2023/04/17 04:14:04;;;;;;;2.85;2.65;;;17.30;71.30;;;;;;5073327;28;20200;-67
2023/04/17 04:16:52;;;;;;;4.38;3.53;;;17.20;70.90;;;;;;5074267;28;20216;-68
2023/04/17 04:19:42;;;;;;;2.97;2.65;;;17.20;71.50;;;;;;5073576;28;20212;-67
2023/04/17 04:22:30;;;;;;;4.28;3.72;;;17.20;71.60;;;;;;5072465;28;20228;-66
2023/04/17 04:25:18;;;;;;;4.68;3.80;;;17.10;71.50;;;;;;5073680;28;20953;-66
2023/04/17 04:28:06;;;;;;;6.70;3.53;;;17.10;71.10;;;;;;5072916;28;20282;-66
2023/04/17 04:30:57;;;;;;;3.60;3.30;;;17.10;71.80;;;;;;5073509;28;20189;-67
2023/04/17 04:33:45;;;;;;;4.50;3.50;;;17.10;71.90;;;;;;5073084;28;20253;-66
2023/04/17 04:36:35;;;;;;;3.58;3.28;;;17.00;71.40;;;;;;5072800;28;20311;-66
2023/04/17 04:39:24;;;;;;;4.20;3.80;;;17.00;71.90;;;;;;5073663;28;20216;-67
2023/04/17 04:42:12;;;;;;;5.00;4.50;;;17.00;71.70;;;;;;5072781;28;20201;-66
2023/04/17 04:45:00;;;;;;;3.78;3.47;;;17.00;71.20;;;;;;5072990;28;20623;-66
2023/04/17 04:47:49;;;;;;;4.55;3.78;;;17.10;70.30;;;;;;5053142;28;20236;-66
2023/04/17 04:50:37;;;;;;;5.15;4.18;;;17.20;70.70;;;;;;5054525;28;20565;-66
2023/04/17 04:53:25;;;;;;;6.13;5.05;;;17.30;70.50;;;;;;5052509;28;20824;-67
2023/04/17 04:56:14;;;;;;;6.85;4.60;;;17.50;78.60;;;;;;5053556;28;20251;-66
2023/04/17 04:59:02;;;;;;;6.20;5.38;;;17.60;70.30;;;;;;5053843;28;20280;-66
2023/04/17 05:01:50;;;;;;;11.90;4.75;;;17.70;70.10;;;;;;5053543;28;20198;-67
2023/04/17 05:04:40;;;;;;;5.50;4.55;;;17.60;69.70;;;;;;5052865;28;20276;-66
2023/04/17 05:07:28;;;;;;;4.28;3.85;;;17.60;69.10;;;;;;5053141;28;20225;-66
2023/04/17 05:10:16;;;;;;;4.55;4.10;;;17.70;69.80;;;;;;5053534;28;20285;-67
2023/04/17 05:13:04;;;;;;;3.95;3.38;;;17.70;69.70;;;;;;5054023;28;20288;-67
2023/04/17 05:15:52;;;;;;;4.95;3.70;;;17.70;69.50;;;;;;5053673;28;20276;-66
2023/04/17 05:18:40;;;;;;;5.60;3.33;;;17.70;69.10;;;;;;5053846;28;20204;-66
2023/04/17 05:21:30;;;;;;;3.35;3.05;;;17.80;69.90;;;;;;5055397;28;20267;-66
2023/04/17 05:24:18;;;;;;;4.45;3.70;;;17.80;69.90;;;;;;5056075;28;20202;-66
2023/04/17 05:27:06;;;;;;;5.55;3.53;;;17.80;70.00;;;;;;5053749;28;20351;-66
2023/04/17 05:29:54;;;;;;;3.58;3.10;;;17.70;69.90;;;;;;5054017;28;20204;-66
2023/04/17 05:32:42;;;;;;;5.10;4.28;;;17.70;70.00;;;;;;5054036;28;20247;-66
2023/04/17 05:35:30;;;;;;;5.38;3.58;;;17.70;70.00;;;;;;5053586;28;20689;-66
2023/04/17 05:38:20;;;;;;;5.88;4.13;;;17.60;69.50;;;;;;5052137;28;20302;-66
2023/04/17 05:41:08;;;;;;;3.72;3.42;;;17.60;70.20;;;;;;5053169;28;20229;-66
2023/04/17 05:43:56;;;;;;;4.40;3.90;;;17.60;70.30;;;;;;5061374;28;20575;-66
2023/04/17 05:46:44;;;;;;;4.07;3.67;;;17.40;69.80;;;;;;5058588;28;20266;-66
2023/04/17 05:49:33;;;;;;;4.40;3.30;;;17.40;70.50;;;;;;5055819;28;20883;-66
2023/04/17 05:52:21;;;;;;;5.03;3.83;;;17.30;70.60;;;;;;5053621;28;20201;-65
2023/04/17 05:55:11;;;;;;;10.45;4.03;;;17.30;70.70;;;;;;5065926;28;20204;-66
2023/04/17 05:58:01;;;;;;;3.80;3.45;;;17.30;70.40;;;;;;5061311;28;20244;-65
2023/04/17 06:01:09;;;;;;;3.97;3.45;;;17.30;71.00;;;;;;5069219;28;20268;-66
2023/04/17 06:03:57;;;;;;;4.47;3.80;;;17.20;70.90;;;;;;5067616;28;20626;-65
2023/04/17 06:06:45;;;;;;;3.72;3.42;;;17.20;70.50;;;;;;5071740;28;20225;-66
2023/04/17 06:09:35;;;;;;;6.97;3.70;;;17.20;71.10;;;;;;5067095;28;20305;-66
2023/04/17 06:12:24;;;;;;;4.95;3.30;;;17.20;71.20;;;;;;5053241;28;20235;-66
2023/04/17 06:15:12;;;;;;;3.65;3.35;;;17.30;71.30;;;;;;5059751;28;20264;-66
2023/04/17 06:18:01;;;;;;;3.72;3.42;;;17.20;70.70;;;;;;5061952;28;20285;-66
2023/04/17 06:20:49;;;;;;;6.88;4.50;;;17.30;71.50;;;;;;5071135;28;20215;-69
2023/04/17 06:23:37;;;;;;;4.82;3.45;;;17.20;71.40;;;;;;5072143;28;20225;-67
2023/04/17 06:26:26;;;;;;;6.22;3.88;;;17.20;71.40;;;;;;5073222;28;20244;-65
2023/04/17 06:29:15;;;;;;;6.20;5.07;;;17.20;72.00;;;;;;5080269;28;20188;-66
2023/04/17 06:32:04;;;;;;;5.72;5.18;;;17.10;71.50;;;;;;5075064;28;20197;-66
2023/04/17 06:34:52;;;;;;;11.45;5.50;;;17.40;71.30;;;;;;5061433;28;20591;-66
2023/04/17 06:37:46;;;;;;;11.98;5.15;;;18.00;69.70;;;;;;5069851;28;20252;-66
2023/04/17 06:40:34;;;;;;;7.57;5.82;;;18.30;69.80;;;;;;5070384;28;20217;-66
2023/04/17 06:43:22;;;;;;;8.52;5.10;;;18.90;69.00;;;;;;5071053;28;20307;-65
2023/04/17 06:46:12;;;;;;;18.73;5.50;;;19.40;74.20;;;;;;5079534;28;20269;-64
2023/04/17 06:49:01;;;;;;;5.63;4.78;;;19.70;67.40;;;;;;5075416;28;20201;-65
2023/04/17 06:51:50;;;;;;;6.07;5.40;;;20.00;66.60;;;;;;5058256;28;20684;-69
2023/04/17 06:54:38;;;;;;;15.18;8.80;;;20.30;66.20;;;;;;5064588;28;20208;-65
2023/04/17 06:57:26;;;;;;;8.98;6.65;;;20.60;65.70;;;;;;5068814;28;20224;-64
2023/04/17 07:00:15;;;;;;;9.15;5.57;;;20.80;65.30;;;;;;5065152;28;20212;-65
2023/04/17 07:03:05;;;;;;;9.93;6.32;;;21.00;64.90;;;;;;5075203;28;20236;-65
2023/04/17 07:05:53;;;;;;;7.43;6.22;;;21.20;64.60;;;;;;5070415;28;20227;-64
2023/04/17 07:08:41;;;;;;;9.23;5.80;;;21.40;63.70;;;;;;5065458;28;20197;-66
2023/04/17 07:11:30;;;;;;;5.75;5.15;;;21.50;63.70;;;;;;5066431;28;20221;-65
2023/04/17 07:14:18;;;;;;;7.75;5.85;;;21.90;63.70;;;;;;5055550;28;20289;-65
2023/04/17 07:17:06;;;;;;;7.55;5.82;;;22.00;62.40;;;;;;5067393;28;20224;-65
2023/04/17 07:19:56;;;;;;;7.72;6.05;;;22.00;62.80;;;;;;5071915;28;20285;-64
2023/04/17 07:22:44;;;;;;;11.00;6.20;;;22.20;62.60;;;;;;5069722;28;20201;-66
2023/04/17 07:25:32;;;;;;;6.10;5.50;;;22.30;62.40;;;;;;5061119;28;20225;-69
2023/04/17 07:28:20;;;;;;;10.05;7.40;;;22.40;62.20;;;;;;5067364;28;20224;-64
2023/04/17 07:31:08;;;;;;;11.23;5.75;;;22.50;62.00;;;;;;5079520;28;20212;-66
2023/04/17 07:33:56;;;;;;;7.93;5.10;;;22.60;61.10;;;;;;5062765;28;20197;-65
2023/04/17 07:36:46;;;;;;;11.23;7.00;;;22.70;61.60;;;;;;5060960;28;20310;-65
2023/04/17 07:39:34;;;;;;;6.78;6.13;;;22.70;61.30;;;;;;5054742;28;20280;-66
2023/04/17 07:42:22;;;;;;;6.15;5.25;;;22.90;61.40;;;;;;5068793;28;20212;-65
2023/04/17 07:45:11;;;;;;;7.25;5.57;;;22.90;61.10;;;;;;5073509;28;20201;-64
2023/04/17 07:47:59;;;;;;;7.18;5.07;;;23.00;61.80;;;;;;5055492;28;20232;-65
2023/04/17 07:50:47;;;;;;;6.72;5.07;;;23.00;60.90;;;;;;5058168;28;20217;-64
2023/04/17 07:53:37;;;;;;;5.90;5.30;;;23.10;60.80;;;;;;5074628;28;20277;-66
2023/04/17 07:56:26;;;;;;;6.53;5.07;;;23.20;60.60;;;;;;5074196;28;20247;-65
2023/04/17 07:59:15;;;;;;;8.18;5.80;;;23.30;60.50;;;;;;5063415;28;20922;-65
2023/04/17 08:02:05;;;;;;;6.25;5.57;;;23.30;60.50;;;;;;5068442;28;20213;-65
2023/04/17 08:04:54;;;;;;;9.00;6.28;;;23.30;60.50;;;;;;5062973;28;20203;-65
2023/04/17 08:07:42;;;;;;;6.75;5.50;;;23.30;60.50;;;;;;5054633;28;20225;-65
2023/04/17 08:10:31;;;;;;;5.80;4.93;;;23.40;60.60;;;;;;5054519;28;20208;-65
2023/04/17 08:13:19;;;;;;;7.82;6.35;;;23.30;60.40;;;;;;5054856;28;20276;-65
2023/04/17 08:16:08;;;;;;;5.07;4.50;;;23.60;67.00;;;;;;5056882;28;20255;-66
2023/04/17 08:18:57;;;;;;;8.98;5.68;;;23.40;60.40;;;;;;5074308;28;20208;-65
2023/04/17 08:21:47;;;;;;;6.90;6.10;;;23.40;60.40;;;;;;5073676;28;20212;-64
2023/04/17 08:24:35;;;;;;;8.55;4.78;;;23.40;60.40;;;;;;5073707;28;20240;-65
2023/04/17 08:27:25;;;;;;;6.63;5.03;;;23.20;60.40;;;;;;5055313;28;20252;-64
2023/04/17 08:30:14;;;;;;;7.80;5.13;;;23.30;60.50;;;;;;5053219;28;20243;-64
2023/04/17 08:33:06;;;;;;;5.85;5.25;;;23.30;60.50;;;;;;5053339;28;20294;-65
2023/04/17 08:35:54;;;;;;;4.53;4.05;;;23.40;60.40;;;;;;5054685;28;20209;-65
2023/04/17 08:38:43;;;;;;;7.85;5.60;;;23.40;59.70;;;;;;5053680;28;20717;-65
2023/04/17 08:41:39;;;;;;;10.38;5.53;;;23.40;60.20;;;;;;5057569;28;20673;-65
2023/04/17 08:44:28;;;;;;;6.50;5.40;;;23.40;60.20;;;;;;5073590;28;20207;-66
2023/04/17 08:47:17;;;;;;;5.60;5.10;;;23.40;60.20;;;;;;5065087;28;20228;-65
2023/04/17 08:50:08;;;;;;;5.65;5.20;;;23.40;60.20;;;;;;5075043;28;20596;-65
2023/04/17 08:52:56;;;;;;;6.18;5.57;;;23.40;60.90;;;;;;5075847;28;20203;-65
2023/04/17 08:55:45;;;;;;;9.32;6.10;;;23.40;60.10;;;;;;5074168;28;20200;-66
2023/04/17 08:58:33;;;;;;;5.25;4.75;;;23.50;60.10;;;;;;5073281;28;20208;-64
2023/04/17 09:01:23;;;;;;;5.32;4.75;;;23.60;60.00;;;;;;5063121;28;20196;-63
2023/04/17 09:04:14;;;;;;;5.63;5.15;;;23.50;59.90;;;;;;5056174;28;20338;-66
2023/04/17 09:07:03;;;;;;;7.88;5.72;;;23.50;59.90;;;;;;5061089;28;20220;-65
2023/04/17 09:09:52;;;;;;;6.97;5.15;;;23.50;59.90;;;;;;5072816;28;20288;-64
2023/04/17 09:12:40;;;;;;;4.50;4.10;;;23.60;59.80;;;;;;5061942;28;20201;-65
2023/04/17 09:15:29;;;;;;;5.20;4.70;;;23.60;59.80;;;;;;5055241;28;20280;-66
2023/04/17 09:18:26;;;;;;;5.05;4.47;;;23.70;59.80;;;;;;5062613;28;20295;-66
2023/04/17 09:21:18;;;;;;;5.82;5.05;;;23.70;59.70;;;;;;5073372;28;20606;-66
2023/04/17 09:24:08;;;;;;;4.68;4.22;;;23.70;59.70;;;;;;5053038;28;20212;-66
2023/04/17 09:27:20;;;;;;;6.00;5.35;;;23.70;59.60;;;;;;5053304;28;20697;-66
2023/04/17 09:30:09;;;;;;;4.75;4.35;;;23.80;59.70;;;;;;5054288;28;20278;-66
2023/04/17 09:33:03;;;;;;;5.20;4.70;;;23.80;59.70;;;;;;5064767;28;20208;-66
2023/04/17 09:35:52;;;;;;;5.25;4.85;;;23.80;59.60;;;;;;5073977;28;20207;-65
2023/04/17 09:38:40;;;;;;;5.97;5.38;;;23.80;59.60;;;;;;5053748;28;20223;-66
2023/04/17 09:41:30;;;;;;;5.55;4.72;;;23.90;59.70;;;;;;5065345;28;20624;-67
2023/04/17 09:44:26;;;;;;;4.57;4.18;;;23.80;59.60;;;;;;5073618;28;20212;-67
2023/04/17 09:47:16;;;;;;;5.35;4.85;;;23.80;59.70;;;;;;5056027;28;20305;-65
2023/04/17 09:50:06;;;;;;;4.95;4.53;;;23.70;59.60;;;;;;5055143;28;20208;-65
2023/04/17 09:52:56;;;;;;;4.90;3.85;;;23.80;59.70;;;;;;5052783;28;20693;-65
2023/04/17 09:55:45;;;;;;;5.07;4.57;;;23.70;59.60;;;;;;5057774;28;20217;-65
2023/04/17 09:58:33;;;;;;;5.25;4.75;;;23.80;59.70;;;;;;5072700;28;20200;-66
2023/04/17 10:01:22;;;;;;;5.55;5.00;;;23.80;59.70;;;;;;5072580;28;20208;-66
2023/04/17 10:04:11;;;;;;;4.95;4.25;;;23.90;59.70;;;;;;5059922;28;20419;-65
2023/04/17 10:07:01;;;;;;;6.35;4.85;;;23.80;59.60;;;;;;5051709;28;20596;-65
2023/04/17 10:09:51;;;;;;;5.50;4.10;;;23.80;59.60;;;;;;5072193;28;20628;-63
2023/04/17 10:12:40;;;;;;;5.57;4.78;;;23.80;59.70;;;;;;5072244;28;20288;-65
2023/04/17 10:15:29;;;;;;;4.47;3.85;;;23.80;60.30;;;;;;5069160;28;20286;-64
2023/04/17 10:18:22;;;;;;;5.28;4.78;;;23.90;59.60;;;;;;5074851;28;20220;-64
2023/04/17 10:21:23;;;;;;;5.50;4.95;;;24.00;59.60;;;;;;5072034;28;20239;-65
2023/04/17 10:24:24;;;;;;;4.82;4.00;;;24.00;59.40;;;;;;5073278;28;20273;-64
2023/04/17 10:27:45;;;;;;;8.57;3.85;;;24.00;59.60;;;;;;5072230;28;20216;-65
2023/04/17 10:30:53;;;;;;;5.53;4.93;;;23.90;59.50;;;;;;5072283;28;20280;-65
2023/04/17 10:33:49;;;;;;;7.22;4.68;;;23.90;59.50;;;;;;5070845;28;20279;-65
2023/04/17 10:36:49;;;;;;;7.93;4.55;;;24.00;59.60;;;;;;5073016;28;20304;-66
2023/04/17 10:39:53;;;;;;;7.57;4.18;;;24.10;59.50;;;;;;5071873;28;20692;-66
2023/04/17 10:42:41;;;;;;;4.47;4.07;;;24.10;59.40;;;;;;5073098;28;20212;-65
2023/04/17 10:45:56;;;;;;;4.10;3.80;;;24.20;59.30;;;;;;5053585;28;20280;-65
2023/04/17 10:48:48;;;;;;;5.00;4.50;;;24.10;59.20;;;;;;5063947;28;20201;-66
2023/04/17 10:51:40;;;;;;;5.28;4.07;;;24.10;59.20;;;;;;5065777;28;20198;-65
2023/04/17 10:54:32;;;;;;;4.45;3.63;;;24.10;59.20;;;;;;5059030;28;20197;-64
2023/04/17 10:57:56;;;;;;;5.32;4.10;;;24.20;59.40;;;;;;5061993;28;20286;-67
2023/04/17 11:00:51;;;;;;;4.65;4.13;;;24.00;59.30;;;;;;5062862;28;20228;-67
2023/04/17 11:03:41;;;;;;;4.25;3.85;;;24.00;59.30;;;;;;5063015;28;20231;-66
2023/04/17 11:06:31;;;;;;;12.40;4.97;;;24.00;59.20;;;;;;5054928;28;20594;-65
2023/04/17 11:09:20;;;;;;;3.85;3.55;;;24.10;59.20;;;;;;5056310;28;20248;-65
2023/04/17 11:12:08;;;;;;;4.25;3.85;;;24.00;59.20;;;;;;5055010;28;20205;-65
2023/04/17 11:15:02;;;;;;;4.68;4.20;;;24.00;59.20;;;;;;5055034;28;20221;-64
2023/04/17 11:17:51;;;;;;;4.30;4.00;;;24.00;59.10;;;;;;5053820;28;20222;-65
2023/04/17 11:20:41;;;;;;;5.25;4.50;;;24.00;59.10;;;;;;5054175;28;20206;-65
2023/04/17 11:23:32;;;;;;;4.85;4.35;;;24.00;59.10;;;;;;5051545;28;20224;-65
2023/04/17 11:26:22;;;;;;;6.18;3.85;;;24.10;59.10;;;;;;5053095;28;20302;-64
2023/04/17 11:29:14;;;;;;;5.53;4.20;;;24.10;59.00;;;;;;5052021;28;20583;-65
2023/04/17 11:32:02;;;;;;;5.28;4.78;;;24.20;58.90;;;;;;5051094;28;20213;-65
2023/04/17 11:34:53;;;;;;;6.22;4.88;;;24.20;58.70;;;;;;5051920;28;20202;-66
2023/04/17 11:38:13;;;;;;;5.30;4.57;;;24.20;58.50;;;;;;5050683;28;20229;-65
2023/04/17 11:41:02;;;;;;;5.75;4.55;;;24.20;58.50;;;;;;5051491;28;20209;-66
2023/04/17 11:43:51;;;;;;;6.65;4.55;;;24.30;58.50;;;;;;5050185;28;20298;-65
2023/04/17 11:46:39;;;;;;;4.78;4.25;;;24.30;58.50;;;;;;5065964;28;20232;-65
2023/04/17 11:49:29;;;;;;;4.90;4.40;;;24.30;58.40;;;;;;5070810;28;20200;-65
2023/04/17 11:52:18;;;;;;;4.65;4.00;;;24.30;58.50;;;;;;5071059;28;20232;-64
2023/04/17 11:55:09;;;;;;;4.90;4.05;;;24.40;58.60;;;;;;5071568;28;20339;-65
2023/04/17 11:57:58;;;;;;;4.30;4.00;;;24.20;58.40;;;;;;5070679;28;20220;-65
2023/04/17 12:01:03;;;;;;;4.72;4.32;;;24.20;58.40;;;;;;5071144;28;20209;-65
2023/04/17 12:03:52;;;;;;;4.93;4.53;;;24.20;58.40;;;;;;5050591;28;20260;-65
2023/04/17 12:06:40;;;;;;;6.32;4.97;;;24.20;58.50;;;;;;5050870;28;20221;-64
2023/04/17 12:09:31;;;;;;;4.57;4.15;;;24.20;58.30;;;;;;5069953;28;20288;-66
2023/04/17 12:12:19;;;;;;;5.50;4.88;;;24.20;58.40;;;;;;5071844;28;20221;-64
2023/04/17 12:15:07;;;;;;;4.90;4.50;;;24.20;58.40;;;;;;5074414;28;20297;-66
2023/04/17 12:17:55;;;;;;;6.97;4.45;;;24.20;58.30;;;;;;5073388;28;20709;-64
2023/04/17 12:20:44;;;;;;;4.40;4.00;;;24.20;58.30;;;;;;5074761;28;20681;-65
2023/04/17 12:23:32;;;;;;;4.30;3.90;;;24.20;58.30;;;;;;5073768;28;20220;-65
2023/04/17 12:26:23;;;;;;;5.40;4.38;;;24.20;58.30;;;;;;5073989;28;20224;-64
2023/04/17 12:29:11;;;;;;;5.60;4.25;;;23.60;57.80;;;;;;5057313;28;20201;-66
2023/04/17 12:32:00;;;;;;;5.78;3.95;;;24.20;58.30;;;;;;5055211;28;20280;-64
2023/04/17 12:34:48;;;;;;;5.53;4.80;;;24.10;58.50;;;;;;5054211;28;20205;-65
2023/04/17 12:37:36;;;;;;;5.40;4.03;;;24.00;58.50;;;;;;5055636;28;20253;-65
2023/04/17 12:40:25;;;;;;;4.70;4.30;;;24.00;58.50;;;;;;5073030;28;20721;-66
2023/04/17 12:43:15;;;;;;;4.43;4.03;;;24.00;58.60;;;;;;5072980;28;20220;-64
2023/04/17 12:46:03;;;;;;;4.63;4.22;;;23.80;58.10;;;;;;5055043;28;20194;-65
2023/04/17 12:48:57;;;;;;;5.30;4.80;;;24.00;58.50;;;;;;5055118;28;20697;-65
2023/04/17 12:51:45;;;;;;;4.80;4.40;;;24.10;58.40;;;;;;5053361;28;20822;-64
2023/04/17 12:54:33;;;;;;;4.65;4.05;;;24.20;58.20;;;;;;5053849;28;20685;-65
2023/04/17 12:57:21;;;;;;;5.15;4.60;;;24.20;58.10;;;;;;5053417;28;20232;-64
2023/04/17 13:00:11;;;;;;;4.63;4.10;;;24.20;58.10;;;;;;5053904;28;20202;-63
2023/04/17 13:03:00;;;;;;;4.43;4.13;;;24.30;58.00;;;;;;5054255;28;20275;-65
2023/04/17 13:05:48;;;;;;;4.88;4.38;;;24.30;58.00;;;;;;5055219;28;20670;-64
2023/04/17 13:08:36;;;;;;;4.15;3.85;;;24.30;58.00;;;;;;5073854;28;20201;-65
2023/04/17 13:11:24;;;;;;;5.18;4.55;;;24.20;57.80;;;;;;5073245;28;20286;-64
2023/04/17 13:14:14;;;;;;;6.93;5.28;;;24.20;58.60;;;;;;5073014;28;20279;-65
2023/04/17 13:17:04;;;;;;;4.88;4.18;;;24.20;58.00;;;;;;5072429;28;20291;-65
2023/04/17 13:19:52;;;;;;;4.30;3.90;;;24.20;57.90;;;;;;5072956;28;20201;-65
2023/04/17 13:22:40;;;;;;;4.43;4.03;;;24.20;58.00;;;;;;5054579;28;20220;-65
2023/04/17 13:25:29;;;;;;;5.70;5.20;;;24.10;58.00;;;;;;5053931;28;20820;-65
2023/04/17 13:28:17;;;;;;;4.88;4.47;;;24.10;58.00;;;;;;5067248;28;20307;-64
2023/04/17 13:31:06;;;;;;;4.47;4.07;;;24.10;58.00;;;;;;5052156;28;20225;-66
2023/04/17 13:33:55;;;;;;;5.45;4.95;;;24.10;58.10;;;;;;5053778;28;20284;-64
2023/04/17 13:36:43;;;;;;;5.18;4.68;;;24.00;58.10;;;;;;5052339;28;20237;-65
2023/04/17 13:39:32;;;;;;;4.97;4.25;;;24.00;58.10;;;;;;5053127;28;20876;-65
2023/04/17 13:42:20;;;;;;;8.63;4.30;;;24.00;58.10;;;;;;5052070;28;20281;-65
2023/04/17 13:45:10;;;;;;;7.07;4.57;;;24.00;58.20;;;;;;5055078;28;20233;-65
2023/04/17 13:47:58;;;;;;;5.47;4.97;;;24.00;57.70;;;;;;5071530;28;20659;-65
2023/04/17 13:50:48;;;;;;;5.18;4.20;;;24.00;58.20;;;;;;5072028;28;20690;-65
2023/04/17 13:53:36;;;;;;;4.82;4.43;;;24.10;58.20;;;;;;5071608;28;20861;-65
2023/04/17 13:56:25;;;;;;;4.35;4.05;;;24.00;58.20;;;;;;5072697;28;20705;-66
2023/04/17 13:59:13;;;;;;;4.80;4.30;;;24.00;58.10;;;;;;5072463;28;20227;-65
2023/04/17 14:02:02;;;;;;;4.78;4.28;;;24.10;58.10;;;;;;5071031;28;20205;-65
2023/04/17 14:04:51;;;;;;;7.15;4.90;;;24.10;58.00;;;;;;5072031;28;20217;-66
2023/04/17 14:07:40;;;;;;;5.35;4.60;;;24.20;57.90;;;;;;5071623;28;20227;-65
2023/04/17 14:10:28;;;;;;;9.20;5.03;;;24.20;57.80;;;;;;5072964;28;20280;-66
2023/04/17 14:13:16;;;;;;;4.88;4.47;;;24.20;57.80;;;;;;5072630;28;20200;-65
2023/04/17 14:16:05;;;;;;;5.05;4.40;;;24.50;63.30;;;;;;5072526;28;20689;-66
2023/04/17 14:18:53;;;;;;;5.20;4.05;;;24.30;57.70;;;;;;5071262;28;20283;-67
2023/04/17 14:21:42;;;;;;;4.80;4.32;;;24.30;57.80;;;;;;5071379;28;20632;-66
2023/04/17 14:24:32;;;;;;;4.97;4.57;;;24.30;57.80;;;;;;5071051;28;20217;-66
2023/04/17 14:27:20;;;;;;;4.70;4.30;;;24.20;57.70;;;;;;5070977;28;20220;-66
2023/04/17 14:30:09;;;;;;;4.53;4.13;;;24.20;57.70;;;;;;5071052;28;20588;-67
2023/04/17 14:32:57;;;;;;;5.40;4.50;;;24.20;57.70;;;;;;5071614;28;20282;-68
2023/04/17 14:35:45;;;;;;;5.22;4.72;;;24.20;57.70;;;;;;5071684;28;20212;-67
2023/04/17 14:38:33;;;;;;;5.63;4.97;;;24.20;57.80;;;;;;5072842;28;20197;-67
2023/04/17 14:41:28;;;;;;;5.95;4.78;;;24.10;57.70;;;;;;5071792;28;20242;-67